LGHI

Details ICAO LGHI (JKH)
Name Chios
Region Greece
Timezone Europe/Athens (UTC+3.0)
Plans Departing 181
Arriving 265
Stats Elevation 18 ft / 5 m (AMSL)
Location 38.343300° 26.140600°
Runways 1
Magnetic Variation 5.405° E
Sunrise 2024-04-16 03:39:05 UTC / 2024-04-16 06:39:05 Local
Sunset 2024-04-16 16:53:27 UTC / 2024-04-16 19:53:27 Local
Advertisement - Login to hide

Runways

ID Width Length Bearing (true/mag) Surface Threshold Overrun Markings Lighting
01 95 ft / 29 m 5,352 ft / 1,631 m 9.51° / 4.11° ASPHALT 659 ft / 201 m 0 ft / 0 m APP CENTERLINE EDGE THRESHOLD MALSF
19 95 ft / 29 m 5,352 ft / 1,631 m 189.52° / 184.11° ASPHALT 427 ft / 130 m 0 ft / 0 m APP CENTERLINE EDGE THRESHOLD MALSF

Map

Weather


0- 5 10 15 20 25 30 35+ Temperature / °C

Clouds and Precipitation
Forecast for 2024-04-15 18:00 UTC. Updated 17 hours ago

Ground ~20,000 ft ~40,000 ft Winds

METAR

LGHI 160750Z 17006KT CAVOK 22/15 Q1013

TAF

Not found

Frequencies

Approach 124.00 MHz Chios approach
Tower 122.70 MHz Chios tower
Warning: Do not use this data for real-world aviation or navigation. No guarantee of current accuracy is given.